createdAt,value
2023-02-28T00:01:25.546Z,10.17
2023-02-28T00:03:52.122Z,8.13
2023-02-28T00:06:18.936Z,9.50
2023-02-28T00:08:45.487Z,9.07
2023-02-28T00:11:13.794Z,11.37
2023-02-28T00:13:43.437Z,10.73
2023-02-28T00:16:14.089Z,12.13
2023-02-28T00:18:41.064Z,9.97
2023-02-28T00:21:08.266Z,11.67
2023-02-28T00:23:35.492Z,13.30
2023-02-28T00:26:02.221Z,10.57
2023-02-28T00:28:28.924Z,10.20
2023-02-28T00:30:55.895Z,9.50
2023-02-28T00:33:22.958Z,12.80
2023-02-28T00:35:50.674Z,13.80
2023-02-28T00:38:17.583Z,10.87
2023-02-28T00:40:44.595Z,9.63
2023-02-28T00:43:11.178Z,11.30
2023-02-28T00:45:37.771Z,15.57
2023-02-28T00:48:05.221Z,14.23
2023-02-28T00:50:32.053Z,11.30
2023-02-28T00:52:58.532Z,11.00
2023-02-28T00:55:25.026Z,14.57
2023-02-28T00:57:51.788Z,10.97
2023-02-28T01:00:19.506Z,12.87
2023-02-28T01:02:46.283Z,13.73
2023-02-28T01:05:12.919Z,11.57
2023-02-28T01:07:39.521Z,12.93
2023-02-28T01:10:06.456Z,10.80
2023-02-28T01:12:32.922Z,11.63
2023-02-28T01:14:59.428Z,11.70
2023-02-28T01:17:27.375Z,12.10
2023-02-28T01:19:56.336Z,12.83
2023-02-28T01:22:22.973Z,11.90
2023-02-28T01:24:49.459Z,11.57
2023-02-28T01:27:15.930Z,13.13
2023-02-28T01:29:42.431Z,10.60
2023-02-28T01:32:09.394Z,11.30
2023-02-28T01:34:35.881Z,13.60
2023-02-28T01:37:02.659Z,14.07
2023-02-28T01:39:29.623Z,12.93
2023-02-28T01:41:56.293Z,14.60
2023-02-28T01:44:56.838Z,11.57
2023-02-28T01:47:24.439Z,14.20
2023-02-28T01:49:52.565Z,11.50
2023-02-28T01:52:20.053Z,13.63
2023-02-28T01:54:50.982Z,14.23
2023-02-28T01:57:21.204Z,13.13
2023-02-28T02:00:01.230Z,15.20
2023-02-28T02:02:28.692Z,15.57
2023-02-28T02:04:59.879Z,11.77
2023-02-28T02:07:27.194Z,14.60
2023-02-28T02:10:28.293Z,10.83
2023-02-28T02:13:32.029Z,14.23
2023-02-28T02:16:21.843Z,14.30
2023-02-28T02:18:54.012Z,12.43
2023-02-28T02:22:01.574Z,15.40
2023-02-28T02:24:48.472Z,12.27
2023-02-28T02:27:33.449Z,14.10
2023-02-28T02:30:33.866Z,12.87
2023-02-28T02:33:24.245Z,14.13
2023-02-28T02:35:59.912Z,13.37
2023-02-28T02:38:40.388Z,11.90
2023-02-28T02:41:15.557Z,12.00
2023-02-28T02:43:52.563Z,14.53
2023-02-28T02:46:29.732Z,11.60
2023-02-28T02:48:57.811Z,13.30
2023-02-28T02:51:25.686Z,15.10
2023-02-28T02:53:56.764Z,14.73
2023-02-28T02:56:27.028Z,16.27
2023-02-28T02:58:58.258Z,14.03
2023-02-28T03:01:29.646Z,13.03
2023-02-28T03:04:02.879Z,13.40
2023-02-28T03:06:29.770Z,13.47
2023-02-28T03:08:56.264Z,16.17
2023-02-28T03:11:22.960Z,14.10
2023-02-28T03:14:15.061Z,15.97
2023-02-28T03:16:50.961Z,14.23
2023-02-28T03:19:39.825Z,19.00
2023-02-28T03:22:19.137Z,15.33
2023-02-28T03:25:04.532Z,17.33
2023-02-28T03:27:56.460Z,16.13
2023-02-28T03:30:27.433Z,15.60
2023-02-28T03:32:58.600Z,17.37
2023-02-28T03:35:27.577Z,16.87
2023-02-28T03:38:03.676Z,18.53
2023-02-28T03:40:34.204Z,14.30
2023-02-28T03:43:05.301Z,14.10
2023-02-28T03:45:35.097Z,14.70
2023-02-28T03:48:06.082Z,16.13
2023-02-28T03:50:39.114Z,18.27
2023-02-28T03:53:13.381Z,15.47
2023-02-28T03:55:44.544Z,17.30
2023-02-28T03:58:26.301Z,19.70
2023-02-28T04:01:00.743Z,16.63
2023-02-28T04:03:27.310Z,17.63
2023-02-28T04:05:55.622Z,16.57
2023-02-28T04:08:23.284Z,17.27
2023-02-28T04:10:56.342Z,17.90
2023-02-28T04:13:23.446Z,16.80
2023-02-28T04:15:50.109Z,21.20
2023-02-28T04:18:16.665Z,19.13
2023-02-28T04:20:43.199Z,19.17
2023-02-28T04:23:09.757Z,19.53
2023-02-28T04:25:36.269Z,23.07
2023-02-28T04:28:02.716Z,19.03
2023-02-28T04:30:30.643Z,22.40
2023-02-28T04:32:57.713Z,21.37
2023-02-28T04:35:24.305Z,26.03
2023-02-28T04:37:50.868Z,21.60
2023-02-28T04:40:17.468Z,22.07
2023-02-28T04:42:43.938Z,22.67
2023-02-28T04:45:11.299Z,22.77
2023-02-28T04:47:38.318Z,21.20
2023-02-28T04:50:05.851Z,25.43
2023-02-28T04:52:32.367Z,22.07
2023-02-28T04:54:58.939Z,23.13
2023-02-28T04:57:25.494Z,24.20
2023-02-28T04:59:52.011Z,22.53
2023-02-28T05:02:18.683Z,22.47
2023-02-28T05:04:45.183Z,23.67
2023-02-28T05:07:11.683Z,24.53
2023-02-28T05:09:38.262Z,24.10
2023-02-28T05:12:04.786Z,26.27
2023-02-28T05:14:31.742Z,21.73
2023-02-28T05:16:58.225Z,22.43
2023-02-28T05:19:24.643Z,22.87
2023-02-28T05:21:53.310Z,24.37
2023-02-28T05:24:25.772Z,24.07
2023-02-28T05:26:53.958Z,26.77
2023-02-28T05:29:20.912Z,24.33
2023-02-28T05:31:47.766Z,21.67
2023-02-28T05:34:16.552Z,27.90
2023-02-28T05:36:43.342Z,22.53
2023-02-28T05:39:13.465Z,24.90
2023-02-28T05:41:43.560Z,32.50
2023-02-28T05:44:10.877Z,24.90
2023-02-28T05:46:38.174Z,25.37
2023-02-28T05:49:05.975Z,32.27
2023-02-28T05:51:32.801Z,29.63
2023-02-28T05:54:01.362Z,27.23
2023-02-28T05:56:28.527Z,33.10
2023-02-28T05:58:56.241Z,34.73
2023-02-28T06:01:25.902Z,28.67
2023-02-28T06:03:53.000Z,32.20
2023-02-28T06:06:19.895Z,26.90
2023-02-28T06:08:46.750Z,29.13
2023-02-28T06:11:13.559Z,31.80
2023-02-28T06:13:40.045Z,33.27
2023-02-28T06:16:06.721Z,28.83
2023-02-28T06:18:33.234Z,32.23
2023-02-28T06:20:59.746Z,32.30
2023-02-28T06:23:26.312Z,31.47
2023-02-28T06:25:54.053Z,37.03
2023-02-28T06:28:20.540Z,29.93
2023-02-28T06:30:47.003Z,30.63
2023-02-28T06:33:13.562Z,30.63
2023-02-28T06:35:40.118Z,31.23
2023-02-28T06:38:06.976Z,27.07
2023-02-28T06:40:36.042Z,28.77
2023-02-28T06:43:03.100Z,40.00
2023-02-28T06:45:29.957Z,31.10
2023-02-28T06:47:56.499Z,38.00
2023-02-28T06:50:22.983Z,30.63
2023-02-28T06:52:49.604Z,34.60
2023-02-28T06:55:16.124Z,32.13
2023-02-28T06:57:42.777Z,33.87
2023-02-28T07:00:10.148Z,31.97
2023-02-28T07:02:38.600Z,34.67
2023-02-28T07:05:06.779Z,33.30
2023-02-28T07:07:33.485Z,35.70
2023-02-28T07:10:00.303Z,38.13
2023-02-28T07:12:26.927Z,40.47
2023-02-28T07:14:53.539Z,35.63
2023-02-28T07:17:20.150Z,45.87
2023-02-28T07:19:46.683Z,33.90
2023-02-28T07:22:15.570Z,32.10
2023-02-28T07:24:42.364Z,21.97
2023-02-28T07:27:08.814Z,15.03
2023-02-28T07:29:35.304Z,19.73
2023-02-28T07:32:01.873Z,14.70
2023-02-28T07:34:28.390Z,17.17
2023-02-28T07:36:55.145Z,16.30
2023-02-28T07:39:22.737Z,19.17
2023-02-28T07:41:49.302Z,16.73
2023-02-28T07:44:16.136Z,16.33
2023-02-28T07:46:42.667Z,18.13
2023-02-28T07:49:09.196Z,16.13
2023-02-28T07:51:35.660Z,17.80
2023-02-28T07:54:02.267Z,19.73
2023-02-28T07:56:29.171Z,20.80
2023-02-28T07:58:55.973Z,16.03
2023-02-28T08:01:22.825Z,17.77
2023-02-28T08:03:49.344Z,17.30
2023-02-28T08:06:18.768Z,18.53
2023-02-28T08:08:45.448Z,18.13
2023-02-28T08:11:11.976Z,17.87
2023-02-28T08:13:38.489Z,19.27
2023-02-28T08:16:05.167Z,15.70
2023-02-28T08:18:33.307Z,18.90
2023-02-28T08:21:00.252Z,23.53
2023-02-28T08:23:26.895Z,25.67
2023-02-28T08:25:57.227Z,30.40
2023-02-28T08:28:26.994Z,17.97
2023-02-28T08:30:54.704Z,22.67
2023-02-28T08:33:21.608Z,18.83
2023-02-28T08:35:48.670Z,20.03
2023-02-28T08:38:15.350Z,18.17
2023-02-28T08:40:41.870Z,17.37
2023-02-28T08:43:08.309Z,20.10
2023-02-28T08:45:34.769Z,21.37
2023-02-28T08:48:01.337Z,20.70
2023-02-28T08:50:27.960Z,22.67
2023-02-28T08:52:55.015Z,20.73
2023-02-28T08:55:21.518Z,21.23
2023-02-28T08:57:48.062Z,17.30
2023-02-28T09:00:16.293Z,15.93
2023-02-28T09:02:44.626Z,15.17
2023-02-28T09:05:11.442Z,14.97
2023-02-28T09:07:38.523Z,16.83
2023-02-28T09:10:05.353Z,16.13
2023-02-28T09:12:35.389Z,13.53
2023-02-28T09:15:02.373Z,15.33
2023-02-28T09:17:30.655Z,13.83
2023-02-28T09:19:58.364Z,15.23
2023-02-28T09:22:25.155Z,14.47
2023-02-28T09:24:51.608Z,13.10
2023-02-28T09:27:18.288Z,12.73
2023-02-28T09:29:44.843Z,14.30
2023-02-28T09:32:11.441Z,11.77
2023-02-28T09:34:38.528Z,14.00
2023-02-28T09:37:05.463Z,12.57
2023-02-28T09:39:32.728Z,12.77
2023-02-28T09:41:59.758Z,11.77
2023-02-28T09:44:30.237Z,13.83
2023-02-28T09:47:11.509Z,13.87
2023-02-28T09:49:44.592Z,13.10
2023-02-28T09:52:15.146Z,14.57
2023-02-28T09:54:42.357Z,13.27
2023-02-28T09:57:16.560Z,12.27
2023-02-28T10:00:01.684Z,12.93
2023-02-28T10:03:13.263Z,13.10
2023-02-28T10:05:44.374Z,10.47
2023-02-28T10:08:35.106Z,12.53
2023-02-28T10:11:05.350Z,12.63
2023-02-28T10:13:40.676Z,13.80
2023-02-28T10:16:12.806Z,13.57
2023-02-28T10:19:02.255Z,12.13
2023-02-28T10:21:39.244Z,12.60
2023-02-28T10:24:31.934Z,14.13
2023-02-28T10:27:07.751Z,13.93
2023-02-28T10:29:34.390Z,12.07
2023-02-28T10:32:03.112Z,14.60
2023-02-28T10:34:29.596Z,12.40
2023-02-28T10:36:56.836Z,12.67
2023-02-28T10:39:38.584Z,14.17
2023-02-28T10:42:05.548Z,12.63
2023-02-28T10:44:32.218Z,14.20
2023-02-28T10:46:58.846Z,16.40
2023-02-28T10:49:31.657Z,14.80
2023-02-28T10:52:01.766Z,13.57
2023-02-28T10:54:36.415Z,14.77
2023-02-28T10:57:25.365Z,17.40
2023-02-28T10:59:53.555Z,17.43
2023-02-28T11:02:39.103Z,18.10
2023-02-28T11:05:31.623Z,15.30
2023-02-28T11:08:22.143Z,18.53
2023-02-28T11:10:55.738Z,19.57
2023-02-28T11:13:27.264Z,16.90
2023-02-28T11:15:56.873Z,16.67
2023-02-28T11:18:27.795Z,17.57
2023-02-28T11:20:56.622Z,18.03
2023-02-28T11:23:26.866Z,15.27
2023-02-28T11:25:54.805Z,14.30
2023-02-28T11:28:35.637Z,14.73
2023-02-28T11:31:06.841Z,16.07
2023-02-28T11:33:41.502Z,17.07
2023-02-28T11:36:15.092Z,16.17
2023-02-28T11:38:41.901Z,16.77
2023-02-28T11:41:32.239Z,14.63
2023-02-28T11:44:15.199Z,16.93
2023-02-28T11:46:54.743Z,15.40
2023-02-28T11:49:40.121Z,13.53
2023-02-28T11:52:22.293Z,16.60
2023-02-28T11:54:51.772Z,14.50
2023-02-28T11:57:46.323Z,16.13
2023-02-28T12:00:38.611Z,16.10
2023-02-28T12:03:27.221Z,16.87
2023-02-28T12:05:53.780Z,17.50
2023-02-28T12:08:28.311Z,16.60
2023-02-28T12:11:18.082Z,16.33
2023-02-28T12:14:02.697Z,15.67
2023-02-28T12:16:51.138Z,17.10
2023-02-28T12:19:49.600Z,17.10
2023-02-28T12:22:31.471Z,18.27
2023-02-28T12:25:07.116Z,17.63
2023-02-28T12:27:36.564Z,18.10
2023-02-28T12:30:08.186Z,15.93
2023-02-28T12:32:38.892Z,19.33
2023-02-28T12:35:13.102Z,20.70
2023-02-28T12:37:56.010Z,16.40
2023-02-28T12:40:24.744Z,18.53
2023-02-28T12:42:55.087Z,19.53
2023-02-28T12:45:39.397Z,17.57
2023-02-28T12:48:11.206Z,20.17
2023-02-28T12:50:38.136Z,18.73
2023-02-28T12:53:09.618Z,18.10
2023-02-28T12:55:54.701Z,18.13
2023-02-28T12:58:28.956Z,20.67
2023-02-28T13:01:14.496Z,17.93
2023-02-28T13:04:18.553Z,17.93
2023-02-28T13:07:08.792Z,17.30
2023-02-28T13:09:35.586Z,18.77
2023-02-28T13:12:02.037Z,17.40
2023-02-28T13:14:38.787Z,19.60
2023-02-28T13:17:09.883Z,20.90
2023-02-28T13:19:43.088Z,20.03
2023-02-28T13:22:35.933Z,19.10
2023-02-28T13:25:02.580Z,21.10
2023-02-28T13:27:40.093Z,19.20
2023-02-28T13:30:44.582Z,19.77
2023-02-28T13:33:35.295Z,21.27
2023-02-28T13:36:14.525Z,23.13
2023-02-28T13:39:02.762Z,21.93
2023-02-28T13:41:32.541Z,22.17
2023-02-28T13:44:04.169Z,20.87
2023-02-28T13:46:31.677Z,20.77
2023-02-28T13:49:24.308Z,20.83
2023-02-28T13:51:52.346Z,19.60
2023-02-28T13:54:36.774Z,20.13
2023-02-28T13:57:28.389Z,21.03
2023-02-28T14:00:25.335Z,21.83
2023-02-28T14:03:10.454Z,20.03
2023-02-28T14:05:37.398Z,22.00
2023-02-28T14:08:16.276Z,25.43
2023-02-28T14:10:48.108Z,22.90
2023-02-28T14:13:45.862Z,21.10
2023-02-28T14:16:19.025Z,20.03
2023-02-28T14:19:00.261Z,20.20
2023-02-28T14:21:36.605Z,21.23
2023-02-28T14:24:54.373Z,23.60
2023-02-28T14:27:49.692Z,20.97
2023-02-28T14:30:39.219Z,22.43
2023-02-28T14:33:24.543Z,20.50
2023-02-28T14:36:11.759Z,21.77
2023-02-28T14:38:44.093Z,22.67
2023-02-28T14:41:18.027Z,24.10
2023-02-28T14:43:53.719Z,22.20
2023-02-28T14:46:21.008Z,24.10
2023-02-28T14:48:49.281Z,19.67
2023-02-28T14:51:22.209Z,25.47
2023-02-28T14:53:51.809Z,22.80
2023-02-28T14:56:38.348Z,22.53
2023-02-28T14:59:06.382Z,23.90
2023-02-28T15:01:34.540Z,22.60
2023-02-28T15:04:05.742Z,21.13
2023-02-28T15:06:33.008Z,20.67
2023-02-28T15:09:15.043Z,22.67
2023-02-28T15:11:42.267Z,21.57
2023-02-28T15:14:16.319Z,21.43
2023-02-28T15:16:44.417Z,23.63
2023-02-28T15:19:30.662Z,22.67
2023-02-28T15:22:05.795Z,25.20
2023-02-28T15:24:45.039Z,23.87
2023-02-28T15:27:39.519Z,22.47
2023-02-28T15:30:09.473Z,22.93
2023-02-28T15:32:39.684Z,21.63
2023-02-28T15:35:23.642Z,22.53
2023-02-28T15:37:52.858Z,21.43
2023-02-28T15:40:31.139Z,21.33
2023-02-28T15:43:06.139Z,22.77
2023-02-28T15:45:41.844Z,25.50
2023-02-28T15:48:38.795Z,22.63
2023-02-28T15:51:15.756Z,22.17
2023-02-28T15:53:48.822Z,22.37
2023-02-28T15:56:25.866Z,24.17
2023-02-28T15:59:00.869Z,24.50
2023-02-28T16:01:33.757Z,23.80
2023-02-28T16:04:05.950Z,25.57
2023-02-28T16:06:35.315Z,23.80
2023-02-28T16:09:02.463Z,23.20
2023-02-28T16:11:29.507Z,26.93
2023-02-28T16:13:56.242Z,25.60
2023-02-28T16:16:25.293Z,28.20
2023-02-28T16:18:51.847Z,22.73
2023-02-28T16:21:18.587Z,22.90
2023-02-28T16:23:45.145Z,26.73
2023-02-28T16:26:20.369Z,22.07
2023-02-28T16:28:47.180Z,24.23
2023-02-28T16:31:17.517Z,27.37
2023-02-28T16:33:45.740Z,27.83
2023-02-28T16:36:18.012Z,22.30
2023-02-28T16:38:44.776Z,26.83
2023-02-28T16:41:17.596Z,23.97
2023-02-28T16:43:44.706Z,23.00
2023-02-28T16:46:13.528Z,22.63
2023-02-28T16:48:41.584Z,27.13
2023-02-28T16:51:16.010Z,24.93
2023-02-28T16:53:43.379Z,28.13
2023-02-28T16:56:19.458Z,26.07
2023-02-28T16:58:46.439Z,24.73
2023-02-28T17:01:13.264Z,25.57
2023-02-28T17:03:41.280Z,26.90
2023-02-28T17:06:18.182Z,24.33
2023-02-28T17:08:44.623Z,30.40
2023-02-28T17:11:11.138Z,33.70
2023-02-28T17:13:37.678Z,29.53
2023-02-28T17:16:04.642Z,27.83
2023-02-28T17:18:34.740Z,27.77
2023-02-28T17:21:02.040Z,27.13
2023-02-28T17:23:28.470Z,30.43
2023-02-28T17:25:57.793Z,34.70
2023-02-28T17:28:24.933Z,39.57
2023-02-28T17:30:51.775Z,41.97
2023-02-28T17:33:18.810Z,46.63
2023-02-28T17:35:45.514Z,55.83
2023-02-28T17:38:18.177Z,47.87
2023-02-28T17:40:45.199Z,53.03
2023-02-28T17:43:12.810Z,48.63
2023-02-28T17:45:39.626Z,47.37
2023-02-28T17:48:07.114Z,48.53
2023-02-28T17:50:34.117Z,50.83
2023-02-28T17:53:00.767Z,43.60
2023-02-28T17:55:27.443Z,42.90
2023-02-28T17:57:54.015Z,38.60
2023-02-28T18:00:20.949Z,39.53
2023-02-28T18:02:47.739Z,41.57
2023-02-28T18:05:14.285Z,46.73
2023-02-28T18:07:40.955Z,38.63
2023-02-28T18:10:22.485Z,36.20
2023-02-28T18:12:51.137Z,32.57
2023-02-28T18:15:20.971Z,33.43
2023-02-28T18:17:48.674Z,32.63
2023-02-28T18:20:15.331Z,32.73
2023-02-28T18:22:42.849Z,32.60
2023-02-28T18:25:14.592Z,31.87
2023-02-28T18:27:53.868Z,35.30
2023-02-28T18:30:21.871Z,32.90
2023-02-28T18:32:48.550Z,32.00
2023-02-28T18:35:15.091Z,33.83
2023-02-28T18:37:41.675Z,30.70
2023-02-28T18:40:09.035Z,34.50
2023-02-28T18:42:35.661Z,30.57
2023-02-28T18:45:02.162Z,38.17
2023-02-28T18:47:28.716Z,35.30
2023-02-28T18:49:55.212Z,34.60
2023-02-28T18:52:21.921Z,39.07
2023-02-28T18:54:48.390Z,36.47
2023-02-28T18:57:15.249Z,37.50
2023-02-28T18:59:42.002Z,40.40
2023-02-28T19:02:09.167Z,37.23
2023-02-28T19:04:35.640Z,37.73
2023-02-28T19:07:02.985Z,35.67
2023-02-28T19:09:29.482Z,40.60
2023-02-28T19:11:56.109Z,36.97
2023-02-28T19:14:22.745Z,35.73
2023-02-28T19:16:50.760Z,36.53
2023-02-28T19:19:17.377Z,37.40
2023-02-28T19:21:44.056Z,37.93
2023-02-28T19:24:10.575Z,38.50
2023-02-28T19:26:37.680Z,42.20
2023-02-28T19:29:05.072Z,46.77
2023-02-28T19:31:31.923Z,45.57
2023-02-28T19:33:59.172Z,47.50
2023-02-28T19:36:26.036Z,47.53
2023-02-28T19:38:53.211Z,43.87
2023-02-28T19:41:20.271Z,49.17
2023-02-28T19:43:46.952Z,56.67
2023-02-28T19:46:13.585Z,61.23
2023-02-28T19:48:42.353Z,66.17
2023-02-28T19:51:11.622Z,53.30
2023-02-28T19:53:39.859Z,67.63
2023-02-28T19:56:07.031Z,64.77
2023-02-28T19:58:34.037Z,66.00
2023-02-28T20:01:11.631Z,62.97
2023-02-28T20:03:38.155Z,62.60
2023-02-28T20:06:11.361Z,61.87
2023-02-28T20:08:38.557Z,63.30
2023-02-28T20:11:07.517Z,64.77
2023-02-28T20:13:34.738Z,63.87
2023-02-28T20:16:02.638Z,67.20
2023-02-28T20:18:29.444Z,58.30
2023-02-28T20:20:56.277Z,62.10
2023-02-28T20:23:22.809Z,57.63
2023-02-28T20:25:51.386Z,58.37
2023-02-28T20:28:19.343Z,54.67
2023-02-28T20:30:48.855Z,50.27
2023-02-28T20:33:17.460Z,53.00
2023-02-28T20:35:44.635Z,54.27
2023-02-28T20:38:11.684Z,56.13
2023-02-28T20:40:38.804Z,60.37
2023-02-28T20:43:05.458Z,52.50
2023-02-28T20:45:31.997Z,54.03
2023-02-28T20:47:58.565Z,59.17
2023-02-28T20:50:25.041Z,56.43
2023-02-28T20:52:51.818Z,61.37
2023-02-28T20:55:18.530Z,56.60
2023-02-28T20:57:45.521Z,54.67
2023-02-28T21:00:16.290Z,56.33
2023-02-28T21:02:42.791Z,54.03
2023-02-28T21:05:09.715Z,54.90
2023-02-28T21:07:36.363Z,58.27
2023-02-28T21:10:02.974Z,55.97
2023-02-28T21:12:29.505Z,57.77
2023-02-28T21:14:56.072Z,60.90
2023-02-28T21:17:22.642Z,57.20
2023-02-28T21:19:49.112Z,54.23
2023-02-28T21:22:15.854Z,58.30
2023-02-28T21:24:42.388Z,53.73
2023-02-28T21:27:08.792Z,52.03
2023-02-28T21:29:35.276Z,57.30
2023-02-28T21:32:02.352Z,59.43
2023-02-28T21:34:28.827Z,56.20
2023-02-28T21:36:55.405Z,58.90
2023-02-28T21:39:25.921Z,56.87
2023-02-28T21:41:53.441Z,56.13
2023-02-28T21:44:21.373Z,55.30
2023-02-28T21:46:49.928Z,61.73
2023-02-28T21:49:16.603Z,61.70
2023-02-28T21:51:43.400Z,57.13
2023-02-28T21:54:10.958Z,61.07
2023-02-28T21:56:37.947Z,54.83
2023-02-28T21:59:06.952Z,55.33
2023-02-28T22:01:36.016Z,55.40
2023-02-28T22:04:04.725Z,54.93
2023-02-28T22:06:34.342Z,56.77
2023-02-28T22:09:04.681Z,53.27
2023-02-28T22:11:32.265Z,57.13
2023-02-28T22:13:59.166Z,54.37
2023-02-28T22:16:29.531Z,56.17
2023-02-28T22:18:58.096Z,61.17
2023-02-28T22:21:25.067Z,54.77
2023-02-28T22:23:51.688Z,57.50
2023-02-28T22:26:21.159Z,58.10
2023-02-28T22:28:47.926Z,56.50
2023-02-28T22:31:23.344Z,52.73
2023-02-28T22:33:51.112Z,55.90
2023-02-28T22:36:18.717Z,54.70
2023-02-28T22:38:46.417Z,57.40
2023-02-28T22:41:13.073Z,58.17
2023-02-28T22:43:40.612Z,55.03
2023-02-28T22:46:08.964Z,54.23
2023-02-28T22:48:36.536Z,58.67
2023-02-28T22:51:05.089Z,55.60
2023-02-28T22:53:35.863Z,54.57
2023-02-28T22:56:02.561Z,52.37
2023-02-28T22:58:29.964Z,51.87
2023-02-28T23:00:56.617Z,58.33
2023-02-28T23:03:24.788Z,55.93
2023-02-28T23:05:52.583Z,53.17
2023-02-28T23:08:23.279Z,55.30
2023-02-28T23:10:50.923Z,55.70
2023-02-28T23:13:18.745Z,58.63
2023-02-28T23:15:46.201Z,60.97
2023-02-28T23:18:13.810Z,58.33
2023-02-28T23:20:40.271Z,62.57
2023-02-28T23:23:07.072Z,60.27
2023-02-28T23:25:33.545Z,56.13
2023-02-28T23:28:00.093Z,53.20
2023-02-28T23:30:27.205Z,57.10
2023-02-28T23:32:53.879Z,55.17
2023-02-28T23:35:20.478Z,58.63
2023-02-28T23:37:46.971Z,56.70
2023-02-28T23:40:14.088Z,58.20
2023-02-28T23:42:40.670Z,58.63
2023-02-28T23:45:07.791Z,53.80
2023-02-28T23:47:34.365Z,58.30
2023-02-28T23:50:00.893Z,55.20
2023-02-28T23:52:27.389Z,56.03
2023-02-28T23:54:53.967Z,58.87
2023-02-28T23:57:20.452Z,60.60
2023-02-28T23:59:47.080Z,58.77
